createdAt,value
2023-04-15T00:00:13.205Z,13.62
2023-04-15T00:02:44.475Z,14.08
2023-04-15T00:05:17.555Z,13.64
2023-04-15T00:07:55.567Z,14.20
2023-04-15T00:10:26.114Z,14.01
2023-04-15T00:12:55.890Z,14.06
2023-04-15T00:15:23.490Z,14.12
2023-04-15T00:17:56.934Z,12.65
2023-04-15T00:20:25.339Z,14.06
2023-04-15T00:22:56.015Z,13.53
2023-04-15T00:25:37.811Z,13.59
2023-04-15T00:28:12.478Z,14.00
2023-04-15T00:30:39.381Z,13.88
2023-04-15T00:33:09.031Z,14.06
2023-04-15T00:35:39.746Z,14.16
2023-04-15T00:38:08.536Z,14.12
2023-04-15T00:40:48.543Z,13.45
2023-04-15T00:43:16.482Z,13.97
2023-04-15T00:45:43.693Z,13.96
2023-04-15T00:48:30.888Z,13.75
2023-04-15T00:51:04.900Z,13.79
2023-04-15T00:53:31.781Z,13.83
2023-04-15T00:56:15.406Z,13.61
2023-04-15T00:58:42.138Z,13.73
2023-04-15T01:01:11.199Z,13.67
2023-04-15T01:03:46.937Z,13.60
2023-04-15T01:06:20.482Z,13.55
2023-04-15T01:08:50.122Z,13.38
2023-04-15T01:11:17.284Z,13.49
2023-04-15T01:13:44.180Z,12.88
2023-04-15T01:16:12.137Z,13.56
2023-04-15T01:18:39.674Z,13.25
2023-04-15T01:21:09.829Z,13.38
2023-04-15T01:23:38.602Z,13.41
2023-04-15T01:26:07.960Z,13.46
2023-04-15T01:28:49.536Z,13.33
2023-04-15T01:31:23.064Z,13.20
2023-04-15T01:33:49.758Z,13.25
2023-04-15T01:36:16.294Z,13.14
2023-04-15T01:38:42.951Z,13.05
2023-04-15T01:41:13.198Z,13.25
2023-04-15T01:43:39.830Z,13.16
2023-04-15T01:46:07.238Z,13.28
2023-04-15T01:49:03.199Z,13.25
2023-04-15T01:51:36.040Z,13.16
2023-04-15T01:54:02.722Z,13.21
2023-04-15T01:56:29.461Z,13.18
2023-04-15T01:58:56.330Z,13.15
2023-04-15T02:01:23.160Z,12.81
2023-04-15T02:03:50.036Z,13.15
2023-04-15T02:06:17.779Z,13.00
2023-04-15T02:08:48.598Z,12.73
2023-04-15T02:11:15.743Z,12.90
2023-04-15T02:13:42.419Z,12.93
2023-04-15T02:16:17.790Z,13.08
2023-04-15T02:18:46.235Z,13.01
2023-04-15T02:21:13.218Z,13.10
2023-04-15T02:23:39.846Z,13.05
2023-04-15T02:26:06.788Z,13.15
2023-04-15T02:28:33.423Z,13.12
2023-04-15T02:31:01.852Z,12.93
2023-04-15T02:33:28.636Z,13.13
2023-04-15T02:35:59.429Z,13.01
2023-04-15T02:38:26.327Z,12.88
2023-04-15T02:40:58.905Z,12.94
2023-04-15T02:43:25.726Z,12.94
2023-04-15T02:45:58.408Z,12.90
2023-04-15T02:48:25.268Z,13.02
2023-04-15T02:50:52.014Z,12.45
2023-04-15T02:53:32.037Z,13.13
2023-04-15T02:56:00.146Z,13.07
2023-04-15T02:58:26.813Z,13.07
2023-04-15T03:00:53.479Z,12.94
2023-04-15T03:03:23.160Z,12.85
2023-04-15T03:05:53.785Z,13.00
2023-04-15T03:08:24.328Z,13.10
2023-04-15T03:10:52.722Z,13.12
2023-04-15T03:13:19.644Z,12.49
2023-04-15T03:18:33.818Z,12.79
2023-04-15T03:21:00.629Z,12.82
2023-04-15T03:23:27.249Z,12.64
2023-04-15T03:26:10.619Z,12.88
2023-04-15T03:28:44.914Z,12.93
2023-04-15T03:31:16.881Z,12.80
2023-04-15T03:33:52.868Z,12.69
2023-04-15T03:36:19.494Z,12.90
2023-04-15T03:39:00.910Z,12.86
2023-04-15T03:41:41.914Z,12.90
2023-04-15T03:44:11.305Z,12.92
2023-04-15T03:46:43.984Z,13.05
2023-04-15T03:49:17.249Z,12.87
2023-04-15T03:51:49.325Z,13.20
2023-04-15T03:54:19.581Z,12.86
2023-04-15T03:56:58.236Z,12.83
2023-04-15T03:59:26.752Z,12.94
2023-04-15T04:02:10.639Z,12.81
2023-04-15T04:04:37.573Z,12.86
2023-04-15T04:07:07.878Z,12.32
2023-04-15T04:09:48.354Z,12.93
2023-04-15T04:12:20.175Z,12.90
2023-04-15T04:15:06.189Z,12.68
2023-04-15T04:17:40.800Z,12.87
2023-04-15T04:20:20.713Z,12.67
2023-04-15T04:23:10.875Z,12.53
2023-04-15T04:26:00.893Z,12.30
2023-04-15T04:28:29.325Z,12.74
2023-04-15T04:31:08.060Z,12.79
2023-04-15T04:33:40.631Z,12.63
2023-04-15T04:36:22.468Z,12.70
2023-04-15T04:39:14.618Z,12.53
2023-04-15T04:45:27.744Z,12.29
2023-04-15T04:48:00.965Z,12.56
2023-04-15T04:50:39.156Z,12.44
2023-04-15T04:53:26.830Z,12.60
2023-04-15T04:55:56.078Z,12.46
2023-04-15T04:58:28.229Z,11.82
2023-04-15T05:00:55.182Z,12.63
2023-04-15T05:03:22.611Z,12.34
2023-04-15T05:05:52.720Z,12.63
2023-04-15T05:08:24.429Z,12.55
2023-04-15T05:10:54.390Z,12.65
2023-04-15T05:13:29.247Z,12.49
2023-04-15T05:16:02.172Z,12.48
2023-04-15T05:18:31.547Z,12.76
2023-04-15T05:21:02.453Z,12.74
2023-04-15T05:23:29.358Z,12.59
2023-04-15T05:26:04.144Z,12.57
2023-04-15T05:28:37.221Z,12.72
2023-04-15T05:31:13.156Z,12.46
2023-04-15T05:39:24.484Z,12.84
2023-04-15T05:41:56.285Z,12.67
2023-04-15T05:44:23.010Z,12.29
2023-04-15T05:46:51.650Z,12.67
2023-04-15T05:49:21.491Z,12.99
2023-04-15T05:51:57.979Z,12.96
2023-04-15T05:54:30.384Z,12.87
2023-04-15T05:57:07.210Z,12.99
2023-04-15T05:59:34.047Z,11.78
2023-04-15T06:02:01.344Z,12.93
2023-04-15T06:04:28.414Z,13.31
2023-04-15T06:06:55.251Z,13.12
2023-04-15T06:09:25.845Z,13.45
2023-04-15T06:11:57.059Z,13.40
2023-04-15T06:14:26.964Z,13.50
2023-04-15T06:17:09.224Z,13.44
2023-04-15T06:19:36.800Z,12.65
2023-04-15T06:22:03.751Z,13.13
2023-04-15T06:24:34.917Z,13.25
2023-04-15T06:27:13.908Z,13.33
2023-04-15T06:29:54.294Z,13.63
2023-04-15T06:32:24.237Z,13.50
2023-04-15T06:35:00.286Z,13.73
2023-04-15T06:37:30.082Z,13.66
2023-04-15T06:39:56.891Z,12.59
2023-04-15T06:42:26.230Z,13.86
2023-04-15T06:44:55.529Z,13.38
2023-04-15T06:47:22.439Z,13.84
2023-04-15T06:50:10.246Z,14.03
2023-04-15T06:52:36.926Z,13.62
2023-04-15T06:55:03.920Z,13.73
2023-04-15T06:57:35.077Z,13.62
2023-04-15T07:00:02.465Z,13.87
2023-04-15T07:02:29.537Z,13.95
2023-04-15T07:05:06.612Z,13.74
2023-04-15T07:10:30.430Z,13.86
2023-04-15T07:12:57.370Z,13.79
2023-04-15T07:15:24.063Z,14.11
2023-04-15T07:17:53.775Z,14.13
2023-04-15T07:20:23.559Z,14.09
2023-04-15T07:22:50.296Z,13.84
2023-04-15T07:25:26.528Z,13.50
2023-04-15T07:27:59.799Z,13.84
2023-04-15T07:30:31.785Z,14.29
2023-04-15T07:33:13.697Z,13.72
2023-04-15T07:35:45.825Z,14.56
2023-04-15T07:38:15.668Z,14.54
2023-04-15T07:40:45.412Z,14.77
2023-04-15T07:43:13.642Z,14.83
2023-04-15T07:45:40.508Z,14.63
2023-04-15T07:48:20.136Z,14.66
2023-04-15T07:50:49.515Z,14.68
2023-04-15T07:53:35.047Z,14.67
2023-04-15T07:56:01.787Z,14.84
2023-04-15T07:58:31.242Z,14.47
2023-04-15T08:00:57.992Z,14.80
2023-04-15T08:03:28.448Z,13.97
2023-04-15T08:05:56.505Z,15.09
2023-04-15T08:08:23.323Z,15.09
2023-04-15T08:10:52.507Z,15.22
2023-04-15T08:13:20.954Z,15.09
2023-04-15T08:16:23.577Z,15.12
2023-04-15T08:18:52.969Z,15.25
2023-04-15T08:21:20.380Z,15.36
2023-04-15T08:23:51.472Z,15.34
2023-04-15T08:26:31.789Z,15.44
2023-04-15T08:29:13.372Z,15.44
2023-04-15T08:31:45.111Z,15.28
2023-04-15T08:34:12.635Z,15.30
2023-04-15T08:36:49.641Z,15.47
2023-04-15T08:39:24.052Z,15.57
2023-04-15T08:42:28.693Z,14.87
2023-04-15T08:44:56.788Z,15.25
2023-04-15T08:47:36.782Z,14.68
2023-04-15T08:50:25.404Z,15.46
2023-04-15T08:53:17.493Z,15.24
2023-04-15T08:56:03.406Z,15.82
2023-04-15T08:58:51.244Z,15.99
2023-04-15T09:01:31.955Z,15.65
2023-04-15T09:04:10.477Z,15.98
2023-04-15T09:06:59.101Z,16.05
2023-04-15T09:09:31.041Z,16.09
2023-04-15T09:12:02.885Z,15.91
2023-04-15T09:14:42.000Z,15.81
2023-04-15T09:17:35.752Z,16.37
2023-04-15T09:20:33.124Z,16.41
2023-04-15T09:23:14.295Z,16.35
2023-04-15T09:25:46.822Z,16.45
2023-04-15T09:28:35.989Z,15.67
2023-04-15T09:31:34.559Z,16.83
2023-04-15T09:34:05.276Z,17.00
2023-04-15T09:36:49.106Z,17.17
2023-04-15T09:39:17.248Z,17.19
2023-04-15T09:42:11.580Z,17.45
2023-04-15T09:44:38.776Z,17.55
2023-04-15T09:47:06.116Z,17.22
2023-04-15T09:49:55.582Z,17.61
2023-04-15T09:52:25.532Z,17.80
2023-04-15T09:54:56.662Z,17.76
2023-04-15T09:57:45.524Z,17.94
2023-04-15T10:00:29.118Z,18.01
2023-04-15T10:02:59.375Z,18.17
2023-04-15T10:05:31.877Z,18.21
2023-04-15T10:08:13.769Z,18.55
2023-04-15T10:11:01.060Z,18.69
2023-04-15T10:13:39.888Z,18.76
2023-04-15T10:16:16.519Z,19.01
2023-04-15T10:19:05.004Z,18.93
2023-04-15T10:21:42.593Z,18.95
2023-04-15T10:24:11.550Z,19.02
2023-04-15T10:26:39.183Z,18.68
2023-04-15T10:29:06.953Z,19.50
2023-04-15T10:31:34.297Z,19.53
2023-04-15T10:34:05.544Z,19.74
2023-04-15T10:36:42.156Z,19.70
2023-04-15T10:39:41.894Z,19.94
2023-04-15T10:42:21.679Z,19.88
2023-04-15T10:44:58.441Z,20.05
2023-04-15T10:47:51.862Z,20.18
2023-04-15T10:50:31.787Z,20.33
2023-04-15T10:53:03.709Z,20.26
2023-04-15T10:55:46.547Z,20.31
2023-04-15T10:58:25.566Z,20.45
2023-04-15T11:00:57.819Z,20.13
2023-04-15T11:03:49.610Z,21.25
2023-04-15T11:06:16.703Z,21.33
2023-04-15T11:09:06.264Z,21.38
2023-04-15T11:12:15.046Z,21.51
2023-04-15T11:14:43.501Z,21.34
2023-04-15T11:17:10.471Z,21.47
2023-04-15T11:19:43.945Z,21.59
2023-04-15T11:22:11.813Z,21.81
2023-04-15T11:24:52.092Z,21.95
2023-04-15T11:27:27.205Z,22.23
2023-04-15T11:29:56.822Z,22.21
2023-04-15T11:32:23.823Z,22.20
2023-04-15T11:34:54.993Z,22.19
2023-04-15T11:37:32.501Z,22.09
2023-04-15T11:40:06.700Z,22.18
2023-04-15T11:42:46.728Z,21.97
2023-04-15T11:45:16.636Z,22.55
2023-04-15T11:50:31.787Z,22.98
2023-04-15T11:53:06.910Z,22.91
2023-04-15T11:55:49.416Z,22.88
2023-04-15T11:58:24.541Z,22.96
2023-04-15T12:00:59.132Z,23.30
2023-04-15T12:03:29.973Z,23.40
2023-04-15T12:06:27.907Z,23.65
2023-04-15T12:09:25.325Z,23.88
2023-04-15T12:12:11.848Z,23.72
2023-04-15T12:14:45.415Z,24.15
2023-04-15T12:17:18.891Z,23.80
2023-04-15T12:19:45.913Z,24.35
2023-04-15T12:22:20.128Z,24.32
2023-04-15T12:24:55.102Z,24.50
2023-04-15T12:27:29.886Z,24.69
2023-04-15T12:30:06.471Z,24.14
2023-04-15T12:32:40.973Z,24.97
2023-04-15T12:35:09.745Z,25.30
2023-04-15T12:37:36.467Z,25.34
2023-04-15T12:40:09.674Z,25.11
2023-04-15T12:42:37.048Z,25.35
2023-04-15T12:45:04.084Z,24.45
2023-04-15T12:47:31.100Z,25.53
2023-04-15T12:49:58.014Z,24.32
2023-04-15T12:55:09.602Z,25.15
2023-04-15T12:57:40.748Z,25.45
2023-04-15T13:00:12.175Z,25.62
2023-04-15T13:02:57.538Z,25.51
2023-04-15T13:05:24.456Z,24.13
2023-04-15T13:07:51.461Z,23.28
2023-04-15T13:10:20.798Z,23.62
2023-04-15T13:12:52.729Z,23.41
2023-04-15T13:15:25.298Z,23.34
2023-04-15T13:17:55.822Z,21.64
2023-04-15T13:20:28.519Z,21.54
2023-04-15T13:22:55.404Z,21.64
2023-04-15T13:25:22.442Z,21.86
2023-04-15T13:27:52.523Z,20.82
2023-04-15T13:30:19.362Z,21.27
2023-04-15T13:32:46.634Z,21.99
2023-04-15T13:35:17.195Z,21.36
2023-04-15T13:37:50.034Z,21.52
2023-04-15T13:40:18.434Z,21.96
2023-04-15T13:42:48.234Z,22.03
2023-04-15T13:45:21.567Z,21.54
2023-04-15T13:47:48.244Z,21.57
2023-04-15T13:50:14.986Z,21.19
2023-04-15T13:52:42.942Z,21.13
2023-04-15T13:55:19.906Z,21.09
2023-04-15T13:57:48.268Z,20.36
2023-04-15T14:00:15.680Z,20.97
2023-04-15T14:02:42.718Z,20.79
2023-04-15T14:05:13.713Z,20.81
2023-04-15T14:07:41.046Z,20.68
2023-04-15T14:10:13.599Z,20.70
2023-04-15T14:12:41.433Z,20.87
2023-04-15T14:15:08.730Z,20.67
2023-04-15T14:17:35.863Z,20.92
2023-04-15T14:20:29.370Z,20.43
2023-04-15T14:22:57.013Z,20.45
2023-04-15T14:25:33.174Z,20.51
2023-04-15T14:28:03.755Z,20.47
2023-04-15T14:30:43.864Z,20.47
2023-04-15T14:33:13.468Z,19.74
2023-04-15T14:35:40.301Z,20.27
2023-04-15T14:38:11.015Z,20.24
2023-04-15T14:40:38.202Z,20.22
2023-04-15T14:43:10.789Z,20.35
2023-04-15T14:45:43.340Z,20.08
2023-04-15T14:48:35.901Z,20.09
2023-04-15T14:51:02.675Z,20.40
2023-04-15T14:53:29.391Z,20.32
2023-04-15T14:55:56.106Z,20.26
2023-04-15T14:58:28.117Z,20.23
2023-04-15T15:00:54.941Z,20.38
2023-04-15T15:03:21.848Z,20.08
2023-04-15T15:05:48.790Z,20.13
2023-04-15T15:08:20.943Z,18.88
2023-04-15T15:10:50.023Z,19.76
2023-04-15T15:13:20.542Z,19.18
2023-04-15T15:15:51.186Z,18.80
2023-04-15T15:18:21.344Z,19.78
2023-04-15T15:20:54.216Z,19.41
2023-04-15T15:23:21.054Z,19.44
2023-04-15T15:25:53.295Z,20.02
2023-04-15T15:28:21.902Z,19.33
2023-04-15T15:30:48.786Z,18.73
2023-04-15T15:33:30.237Z,19.63
2023-04-15T15:35:58.343Z,19.64
2023-04-15T15:38:39.892Z,19.12
2023-04-15T15:41:09.833Z,19.22
2023-04-15T15:43:39.502Z,19.26
2023-04-15T15:46:09.815Z,19.26
2023-04-15T15:48:38.475Z,18.40
2023-04-15T15:51:11.124Z,19.25
2023-04-15T15:53:37.931Z,19.32
2023-04-15T15:56:08.507Z,19.05
2023-04-15T15:58:40.827Z,18.01
2023-04-15T16:01:07.652Z,18.62
2023-04-15T16:03:35.224Z,19.16
2023-04-15T16:06:02.270Z,18.93
2023-04-15T16:08:36.593Z,17.87
2023-04-15T16:11:03.436Z,19.23
2023-04-15T16:13:42.236Z,19.27
2023-04-15T16:16:09.625Z,18.91
2023-04-15T16:18:36.661Z,18.29
2023-04-15T16:21:03.571Z,18.33
2023-04-15T16:23:31.277Z,18.23
2023-04-15T16:26:01.245Z,17.80
2023-04-15T16:28:31.227Z,18.40
2023-04-15T16:31:07.718Z,17.63
2023-04-15T16:33:38.105Z,18.72
2023-04-15T16:36:05.679Z,17.13
2023-04-15T16:38:35.813Z,18.00
2023-04-15T16:41:02.725Z,16.94
2023-04-15T16:43:30.166Z,18.02
2023-04-15T16:45:57.017Z,18.31
2023-04-15T16:48:24.372Z,17.69
2023-04-15T16:51:03.990Z,18.05
2023-04-15T16:53:33.617Z,18.15
2023-04-15T16:56:13.378Z,17.88
2023-04-15T16:58:53.513Z,17.93
2023-04-15T17:01:34.085Z,18.05
2023-04-15T17:04:11.545Z,17.81
2023-04-15T17:06:41.939Z,17.84
2023-04-15T17:12:36.892Z,17.77
2023-04-15T17:15:11.111Z,17.68
2023-04-15T17:17:59.941Z,17.63
2023-04-15T17:20:26.785Z,17.19
2023-04-15T17:22:53.901Z,17.42
2023-04-15T17:25:26.744Z,17.55
2023-04-15T17:27:53.522Z,17.43
2023-04-15T17:30:20.465Z,17.44
2023-04-15T17:32:55.869Z,16.57
2023-04-15T17:35:26.103Z,17.47
2023-04-15T17:37:52.909Z,17.32
2023-04-15T17:40:19.806Z,16.42
2023-04-15T17:42:49.595Z,16.10
2023-04-15T17:45:16.529Z,17.09
2023-04-15T17:47:43.538Z,17.16
2023-04-15T17:50:17.423Z,17.05
2023-04-15T17:52:48.517Z,16.33
2023-04-15T17:55:17.226Z,16.01
2023-04-15T17:57:46.363Z,16.40
2023-04-15T18:00:13.888Z,16.64
2023-04-15T18:02:46.377Z,16.78
2023-04-15T18:05:13.605Z,16.85
2023-04-15T18:07:40.783Z,16.76
2023-04-15T18:10:08.895Z,16.63
2023-04-15T18:12:36.010Z,16.61
2023-04-15T18:15:02.886Z,16.67
2023-04-15T18:17:29.924Z,16.69
2023-04-15T18:19:58.805Z,15.89
2023-04-15T18:22:25.668Z,16.56
2023-04-15T18:24:52.490Z,16.55
2023-04-15T18:27:24.903Z,16.46
2023-04-15T18:29:53.424Z,16.44
2023-04-15T18:32:24.060Z,16.37
2023-04-15T18:34:55.761Z,16.26
2023-04-15T18:37:22.684Z,16.35
2023-04-15T18:39:51.663Z,16.21
2023-04-15T18:42:21.259Z,15.76
2023-04-15T18:44:55.521Z,15.36
2023-04-15T18:47:28.180Z,15.55
2023-04-15T18:49:57.162Z,16.20
2023-04-15T18:52:31.424Z,15.45
2023-04-15T18:55:04.071Z,15.33
2023-04-15T18:57:34.882Z,16.21
2023-04-15T19:00:11.194Z,15.81
2023-04-15T19:05:28.194Z,14.75
2023-04-15T19:07:59.654Z,15.42
2023-04-15T19:10:34.982Z,15.11
2023-04-15T19:13:22.269Z,14.62
2023-04-15T19:15:54.313Z,14.54
2023-04-15T19:18:24.593Z,15.73
2023-04-15T19:20:55.127Z,15.21
2023-04-15T19:23:25.080Z,15.52
2023-04-15T19:25:53.502Z,15.68
2023-04-15T19:28:29.830Z,15.77
2023-04-15T19:31:07.748Z,14.88
2023-04-15T19:33:35.907Z,15.75
2023-04-15T19:36:09.178Z,15.55
2023-04-15T19:38:37.225Z,15.45
2023-04-15T19:41:06.434Z,15.62
2023-04-15T19:43:36.409Z,15.71
2023-04-15T19:46:03.479Z,15.16
2023-04-15T19:48:30.570Z,15.50
2023-04-15T19:51:04.520Z,14.62
2023-04-15T19:53:36.486Z,15.44
2023-04-15T19:56:34.658Z,13.89
2023-04-15T19:59:05.784Z,14.86
2023-04-15T20:01:47.046Z,13.89
2023-04-15T20:04:22.742Z,13.84
2023-04-15T20:06:54.382Z,14.45
2023-04-15T20:09:23.314Z,13.65
2023-04-15T20:12:49.232Z,13.64
2023-04-15T20:14:58.280Z,13.48
2023-04-15T20:17:24.988Z,14.48
2023-04-15T20:19:59.780Z,14.75
2023-04-15T20:22:26.699Z,13.50
2023-04-15T20:24:53.660Z,14.71
2023-04-15T20:27:21.277Z,13.32
2023-04-15T20:29:54.115Z,14.17
2023-04-15T20:32:21.196Z,14.39
2023-04-15T20:34:56.734Z,14.08
2023-04-15T20:37:26.878Z,14.39
2023-04-15T20:39:56.743Z,14.36
2023-04-15T20:42:23.703Z,13.82
2023-04-15T20:44:55.360Z,13.23
2023-04-15T20:47:26.983Z,14.39
2023-04-15T20:49:54.419Z,14.25
2023-04-15T20:52:27.025Z,14.16
2023-04-15T20:54:53.867Z,14.01
2023-04-15T20:57:24.869Z,13.68
2023-04-15T20:59:51.999Z,13.98
2023-04-15T21:02:36.158Z,13.58
2023-04-15T21:05:03.583Z,13.49
2023-04-15T21:07:36.110Z,13.52
2023-04-15T21:10:06.645Z,13.43
2023-04-15T21:12:38.054Z,13.96
2023-04-15T21:15:05.474Z,13.93
2023-04-15T21:17:33.704Z,13.89
2023-04-15T21:20:09.853Z,13.85
2023-04-15T21:22:36.627Z,13.54
2023-04-15T21:25:06.935Z,13.82
2023-04-15T21:27:33.809Z,13.80
2023-04-15T21:30:08.874Z,12.96
2023-04-15T21:32:41.542Z,13.72
2023-04-15T21:35:08.798Z,13.59
2023-04-15T21:37:42.855Z,13.71
2023-04-15T21:40:09.766Z,13.43
2023-04-15T21:42:36.419Z,13.53
2023-04-15T21:45:05.814Z,13.67
2023-04-15T21:50:16.388Z,12.98
2023-04-15T21:52:50.944Z,13.34
2023-04-15T21:55:20.967Z,13.41
2023-04-15T21:58:08.063Z,13.54
2023-04-15T22:00:37.134Z,13.48
2023-04-15T22:03:10.494Z,13.55
2023-04-15T22:05:37.559Z,13.09
2023-04-15T22:08:10.387Z,13.38
2023-04-15T22:10:40.629Z,13.03
2023-04-15T22:13:12.421Z,12.21
2023-04-15T22:15:41.334Z,13.24
2023-04-15T22:18:08.038Z,11.98
2023-04-15T22:20:34.769Z,13.12
2023-04-15T22:23:06.243Z,12.85
2023-04-15T22:25:33.193Z,12.92
2023-04-15T22:28:02.803Z,13.37
2023-04-15T22:30:32.923Z,13.38
2023-04-15T22:33:18.703Z,12.04
2023-04-15T22:35:45.569Z,12.74
2023-04-15T22:38:12.344Z,12.88
2023-04-15T22:40:41.822Z,12.11
2023-04-15T22:43:08.714Z,12.34
2023-04-15T22:45:35.442Z,13.30
2023-04-15T22:48:08.286Z,13.26
2023-04-15T22:50:37.286Z,13.12
2023-04-15T22:55:53.576Z,13.08
2023-04-15T22:58:20.426Z,13.11
2023-04-15T23:01:00.160Z,13.33
2023-04-15T23:03:30.442Z,13.40
2023-04-15T23:05:57.278Z,12.96
2023-04-15T23:08:24.091Z,12.75
2023-04-15T23:10:51.208Z,12.18
2023-04-15T23:13:44.103Z,13.31
2023-04-15T23:16:11.273Z,13.15
2023-04-15T23:18:38.041Z,13.03
2023-04-15T23:21:13.027Z,12.83
2023-04-15T23:23:40.947Z,12.92
2023-04-15T23:26:07.782Z,12.82
2023-04-15T23:28:34.578Z,12.93
2023-04-15T23:31:01.427Z,12.88
2023-04-15T23:33:29.242Z,12.78
2023-04-15T23:35:57.545Z,12.82
2023-04-15T23:38:27.362Z,12.27
2023-04-15T23:40:54.162Z,12.70
2023-04-15T23:43:20.960Z,12.23
2023-04-15T23:45:50.727Z,12.35
2023-04-15T23:48:28.414Z,12.58
2023-04-15T23:51:03.707Z,12.16
2023-04-15T23:53:36.733Z,12.16
2023-04-15T23:56:06.696Z,12.29
2023-04-15T23:58:42.627Z,12.53
